sensor_id;sensor_type;location;lat;lon;timestamp;pressure;altitude;pressure_sealevel;temperature;humidity
65190;BME280;51777;53.570;9.984;2023-07-13T00:00:17;100997.75;;;17.35;100.00
65190;BME280;51777;53.570;9.984;2023-07-13T00:02:43;100996.50;;;17.31;100.00
65190;BME280;51777;53.570;9.984;2023-07-13T00:05:08;100999.75;;;17.33;100.00
65190;BME280;51777;53.570;9.984;2023-07-13T00:07:35;101001.56;;;17.32;100.00
65190;BME280;51777;53.570;9.984;2023-07-13T00:10:01;100993.72;;;17.32;100.00
65190;BME280;51777;53.570;9.984;2023-07-13T00:12:28;100991.91;;;17.33;100.00
65190;BME280;51777;53.570;9.984;2023-07-13T00:14:59;100989.56;;;17.23;100.00
65190;BME280;51777;53.570;9.984;2023-07-13T00:17:26;100990.94;;;17.19;100.00
65190;BME280;51777;53.570;9.984;2023-07-13T00:19:52;100989.94;;;17.20;100.00
65190;BME280;51777;53.570;9.984;2023-07-13T00:22:19;100995.78;;;17.22;100.00
65190;BME280;51777;53.570;9.984;2023-07-13T00:24:44;100989.94;;;17.20;100.00
65190;BME280;51777;53.570;9.984;2023-07-13T00:27:10;100996.72;;;17.15;100.00
65190;BME280;51777;53.570;9.984;2023-07-13T00:29:36;100997.72;;;17.14;100.00
65190;BME280;51777;53.570;9.984;2023-07-13T00:32:06;100997.25;;;17.10;100.00
65190;BME280;51777;53.570;9.984;2023-07-13T00:34:32;100990.97;;;17.05;100.00
65190;BME280;51777;53.570;9.984;2023-07-13T00:36:58;100988.34;;;17.05;100.00
65190;BME280;51777;53.570;9.984;2023-07-13T00:39:23;100997.81;;;17.06;100.00
65190;BME280;51777;53.570;9.984;2023-07-13T00:41:50;100997.81;;;17.06;100.00
65190;BME280;51777;53.570;9.984;2023-07-13T00:44:16;101008.25;;;17.06;100.00
65190;BME280;51777;53.570;9.984;2023-07-13T00:46:42;101002.41;;;17.03;100.00
65190;BME280;51777;53.570;9.984;2023-07-13T00:49:12;100999.19;;;17.01;100.00
65190;BME280;51777;53.570;9.984;2023-07-13T00:54:34;101007.44;;;17.05;100.00
65190;BME280;51777;53.570;9.984;2023-07-13T00:57:03;100999.88;;;17.10;100.00
65190;BME280;51777;53.570;9.984;2023-07-13T00:59:31;101007.72;;;17.10;100.00
65190;BME280;51777;53.570;9.984;2023-07-13T01:01:56;101005.84;;;17.04;100.00
65190;BME280;51777;53.570;9.984;2023-07-13T01:04:24;101001.78;;;17.01;100.00
65190;BME280;51777;53.570;9.984;2023-07-13T01:06:50;101001.78;;;17.01;100.00
65190;BME280;51777;53.570;9.984;2023-07-13T01:09:16;101002.22;;;17.05;100.00
65190;BME280;51777;53.570;9.984;2023-07-13T01:11:43;101004.66;;;17.07;100.00
65190;BME280;51777;53.570;9.984;2023-07-13T01:14:10;101001.84;;;17.08;100.00
65190;BME280;51777;53.570;9.984;2023-07-13T01:16:37;101009.50;;;17.10;100.00
65190;BME280;51777;53.570;9.984;2023-07-13T01:19:14;101001.41;;;17.05;100.00
65190;BME280;51777;53.570;9.984;2023-07-13T01:21:50;100996.38;;;17.03;100.00
65190;BME280;51777;53.570;9.984;2023-07-13T01:24:16;100999.34;;;17.00;100.00
65190;BME280;51777;53.570;9.984;2023-07-13T01:26:41;101000.50;;;16.97;100.00
65190;BME280;51777;53.570;9.984;2023-07-13T01:29:06;101002.31;;;16.97;100.00
65190;BME280;51777;53.570;9.984;2023-07-13T01:31:33;101006.47;;;16.91;100.00
65190;BME280;51777;53.570;9.984;2023-07-13T01:33:58;101003.41;;;16.88;100.00
65190;BME280;51777;53.570;9.984;2023-07-13T01:36:23;101010.06;;;16.90;100.00
65190;BME280;51777;53.570;9.984;2023-07-13T01:38:49;101004.41;;;16.87;100.00
65190;BME280;51777;53.570;9.984;2023-07-13T01:41:14;101003.22;;;16.89;100.00
65190;BME280;51777;53.570;9.984;2023-07-13T01:43:40;100998.00;;;16.89;100.00
65190;BME280;51777;53.570;9.984;2023-07-13T01:46:05;101003.94;;;16.83;100.00
65190;BME280;51777;53.570;9.984;2023-07-13T01:48:30;100996.28;;;16.82;100.00
65190;BME280;51777;53.570;9.984;2023-07-13T01:50:56;100992.22;;;16.79;100.00
65190;BME280;51777;53.570;9.984;2023-07-13T01:53:21;100992.31;;;16.71;100.00
65190;BME280;51777;53.570;9.984;2023-07-13T01:55:47;100999.78;;;16.74;100.00
65190;BME280;51777;53.570;9.984;2023-07-13T01:58:12;100986.91;;;16.72;100.00
65190;BME280;51777;53.570;9.984;2023-07-13T02:00:37;100991.69;;;16.69;100.00
65190;BME280;51777;53.570;9.984;2023-07-13T02:03:03;100995.09;;;16.69;100.00
65190;BME280;51777;53.570;9.984;2023-07-13T02:05:28;100998.72;;;16.68;100.00
65190;BME280;51777;53.570;9.984;2023-07-13T02:07:54;100994.91;;;16.71;100.00
65190;BME280;51777;53.570;9.984;2023-07-13T02:10:19;100995.81;;;16.63;100.00
65190;BME280;51777;53.570;9.984;2023-07-13T02:12:45;100997.59;;;16.63;100.00
65190;BME280;51777;53.570;9.984;2023-07-13T02:15:10;100997.75;;;16.61;100.00
65190;BME280;51777;53.570;9.984;2023-07-13T02:17:36;101000.38;;;16.61;100.00
65190;BME280;51777;53.570;9.984;2023-07-13T02:20:03;100999.75;;;16.59;100.00
65190;BME280;51777;53.570;9.984;2023-07-13T02:22:30;101002.97;;;16.61;100.00
65190;BME280;51777;53.570;9.984;2023-07-13T02:24:55;101005.13;;;16.58;100.00
65190;BME280;51777;53.570;9.984;2023-07-13T02:27:20;101004.16;;;16.59;100.00
65190;BME280;51777;53.570;9.984;2023-07-13T02:29:46;100997.50;;;16.56;100.00
65190;BME280;51777;53.570;9.984;2023-07-13T02:32:11;101003.53;;;16.57;100.00
65190;BME280;51777;53.570;9.984;2023-07-13T02:34:37;101011.34;;;16.57;100.00
65190;BME280;51777;53.570;9.984;2023-07-13T02:37:02;101005.94;;;16.58;100.00
65190;BME280;51777;53.570;9.984;2023-07-13T02:39:28;101004.16;;;16.59;100.00
65190;BME280;51777;53.570;9.984;2023-07-13T02:41:53;101000.66;;;16.52;100.00
65190;BME280;51777;53.570;9.984;2023-07-13T02:44:19;101001.28;;;16.54;100.00
65190;BME280;51777;53.570;9.984;2023-07-13T02:46:44;101000.28;;;16.55;100.00
65190;BME280;51777;53.570;9.984;2023-07-13T02:49:10;101006.50;;;16.54;100.00
65190;BME280;51777;53.570;9.984;2023-07-13T02:51:35;101002.63;;;16.50;100.00
65190;BME280;51777;53.570;9.984;2023-07-13T02:54:01;101004.59;;;16.48;100.00
65190;BME280;51777;53.570;9.984;2023-07-13T02:56:28;101003.59;;;16.49;100.00
65190;BME280;51777;53.570;9.984;2023-07-13T02:58:54;101008.66;;;16.50;100.00
65190;BME280;51777;53.570;9.984;2023-07-13T03:01:20;101013.22;;;16.48;100.00
65190;BME280;51777;53.570;9.984;2023-07-13T03:03:47;101000.34;;;16.47;100.00
65190;BME280;51777;53.570;9.984;2023-07-13T03:06:13;101003.31;;;16.43;100.00
65190;BME280;51777;53.570;9.984;2023-07-13T03:08:39;101010.88;;;16.38;100.00
65190;BME280;51777;53.570;9.984;2023-07-13T03:11:15;101006.47;;;16.39;100.00
65190;BME280;51777;53.570;9.984;2023-07-13T03:13:41;101001.44;;;16.37;100.00
65190;BME280;51777;53.570;9.984;2023-07-13T03:16:08;100997.84;;;16.38;100.00
65190;BME280;51777;53.570;9.984;2023-07-13T03:18:35;100999.16;;;16.34;100.00
65190;BME280;51777;53.570;9.984;2023-07-13T03:21:01;101004.38;;;16.34;100.00
65190;BME280;51777;53.570;9.984;2023-07-13T03:23:27;101002.75;;;16.33;100.00
65190;BME280;51777;53.570;9.984;2023-07-13T03:26:11;100992.31;;;16.33;100.00
65190;BME280;51777;53.570;9.984;2023-07-13T03:28:38;101001.75;;;16.34;100.00
65190;BME280;51777;53.570;9.984;2023-07-13T03:31:06;100999.34;;;16.33;100.00
65190;BME280;51777;53.570;9.984;2023-07-13T03:33:32;101001.59;;;16.36;100.00
65190;BME280;51777;53.570;9.984;2023-07-13T03:35:58;101002.25;;;16.38;100.00
65190;BME280;51777;53.570;9.984;2023-07-13T03:38:24;101007.47;;;16.38;100.00
65190;BME280;51777;53.570;9.984;2023-07-13T03:40:49;101000.44;;;16.38;100.00
65190;BME280;51777;53.570;9.984;2023-07-13T03:43:14;100994.56;;;16.36;100.00
65190;BME280;51777;53.570;9.984;2023-07-13T03:45:40;100992.75;;;16.37;100.00
65190;BME280;51777;53.570;9.984;2023-07-13T03:48:06;101002.06;;;16.39;100.00
65190;BME280;51777;53.570;9.984;2023-07-13T03:50:32;100995.84;;;16.40;100.00
65190;BME280;51777;53.570;9.984;2023-07-13T03:52:58;101004.94;;;16.44;100.00
65190;BME280;51777;53.570;9.984;2023-07-13T03:55:23;101011.69;;;16.39;100.00
65190;BME280;51777;53.570;9.984;2023-07-13T03:57:57;101011.69;;;16.39;100.00
65190;BME280;51777;53.570;9.984;2023-07-13T04:00:23;101008.91;;;16.40;100.00
65190;BME280;51777;53.570;9.984;2023-07-13T04:02:49;101012.31;;;16.41;100.00
65190;BME280;51777;53.570;9.984;2023-07-13T04:05:15;101015.03;;;16.48;100.00
65190;BME280;51777;53.570;9.984;2023-07-13T04:07:41;101014.38;;;16.45;100.00
65190;BME280;51777;53.570;9.984;2023-07-13T04:10:06;101016.00;;;16.47;100.00
65190;BME280;51777;53.570;9.984;2023-07-13T04:12:32;101012.59;;;16.46;100.00
65190;BME280;51777;53.570;9.984;2023-07-13T04:14:57;101013.06;;;16.50;100.00
65190;BME280;51777;53.570;9.984;2023-07-13T04:17:23;101005.88;;;16.52;100.00
65190;BME280;51777;53.570;9.984;2023-07-13T04:19:48;101007.75;;;16.58;100.00
65190;BME280;51777;53.570;9.984;2023-07-13T04:22:14;101007.31;;;16.54;100.00
65190;BME280;51777;53.570;9.984;2023-07-13T04:24:39;101007.13;;;16.56;100.00
65190;BME280;51777;53.570;9.984;2023-07-13T04:27:05;101007.13;;;16.56;100.00
65190;BME280;51777;53.570;9.984;2023-07-13T04:29:30;101006.94;;;16.57;100.00
65190;BME280;51777;53.570;9.984;2023-07-13T04:31:56;101008.19;;;16.61;100.00
65190;BME280;51777;53.570;9.984;2023-07-13T04:34:21;101006.75;;;16.59;100.00
65190;BME280;51777;53.570;9.984;2023-07-13T04:36:46;101008.06;;;16.63;100.00
65190;BME280;51777;53.570;9.984;2023-07-13T04:39:12;101006.53;;;16.68;100.00
65190;BME280;51777;53.570;9.984;2023-07-13T04:41:37;101004.75;;;16.69;100.00
65190;BME280;51777;53.570;9.984;2023-07-13T04:44:02;101013.81;;;16.73;100.00
65190;BME280;51777;53.570;9.984;2023-07-13T04:46:28;101012.50;;;16.77;100.00
65190;BME280;51777;53.570;9.984;2023-07-13T04:48:53;101020.66;;;16.74;100.00
65190;BME280;51777;53.570;9.984;2023-07-13T04:51:19;101012.94;;;16.81;100.00
65190;BME280;51777;53.570;9.984;2023-07-13T04:53:45;101010.97;;;16.83;100.00
65190;BME280;51777;53.570;9.984;2023-07-13T04:56:11;101021.69;;;16.88;100.00
65190;BME280;51777;53.570;9.984;2023-07-13T04:58:37;101022.75;;;16.93;100.00
65190;BME280;51777;53.570;9.984;2023-07-13T05:01:04;101022.22;;;16.98;100.00
65190;BME280;51777;53.570;9.984;2023-07-13T05:03:30;101027.19;;;17.08;100.00
65190;BME280;51777;53.570;9.984;2023-07-13T05:05:58;101027.09;;;17.01;100.00
65190;BME280;51777;53.570;9.984;2023-07-13T05:08:24;101037.91;;;17.13;100.00
65190;BME280;51777;53.570;9.984;2023-07-13T05:10:50;101036.53;;;17.17;100.00
65190;BME280;51777;53.570;9.984;2023-07-13T05:13:16;101042.03;;;17.22;100.00
65190;BME280;51777;53.570;9.984;2023-07-13T05:15:41;101042.75;;;17.30;100.00
65190;BME280;51777;53.570;9.984;2023-07-13T05:18:07;101043.28;;;17.41;100.00
65190;BME280;51777;53.570;9.984;2023-07-13T05:20:32;101049.09;;;17.57;100.00
65190;BME280;51777;53.570;9.984;2023-07-13T05:22:57;101047.13;;;17.59;100.00
65190;BME280;51777;53.570;9.984;2023-07-13T05:25:23;101050.91;;;17.57;100.00
65190;BME280;51777;53.570;9.984;2023-07-13T05:27:48;101053.94;;;17.39;100.00
65190;BME280;51777;53.570;9.984;2023-07-13T05:30:14;101045.28;;;17.39;100.00
65190;BME280;51777;53.570;9.984;2023-07-13T05:32:40;101057.69;;;17.51;100.00
65190;BME280;51777;53.570;9.984;2023-07-13T05:35:06;101067.09;;;17.31;100.00
65190;BME280;51777;53.570;9.984;2023-07-13T05:37:31;101067.34;;;17.36;100.00
65190;BME280;51777;53.570;9.984;2023-07-13T05:39:57;101062.13;;;17.36;100.00
65190;BME280;51777;53.570;9.984;2023-07-13T05:42:22;101063.22;;;17.27;100.00
65190;BME280;51777;53.570;9.984;2023-07-13T05:44:48;101060.59;;;17.42;100.00
65190;BME280;51777;53.570;9.984;2023-07-13T05:47:13;101050.94;;;17.42;100.00
65190;BME280;51777;53.570;9.984;2023-07-13T05:49:40;101053.91;;;17.54;100.00
65190;BME280;51777;53.570;9.984;2023-07-13T05:52:05;101062.84;;;17.30;100.00
65190;BME280;51777;53.570;9.984;2023-07-13T05:54:31;101061.22;;;17.29;100.00
65190;BME280;51777;53.570;9.984;2023-07-13T05:56:56;101063.03;;;17.43;100.00
65190;BME280;51777;53.570;9.984;2023-07-13T05:59:22;101067.00;;;17.39;100.00
65190;BME280;51777;53.570;9.984;2023-07-13T06:01:47;101068.25;;;17.28;100.00
65190;BME280;51777;53.570;9.984;2023-07-13T06:04:13;101067.66;;;17.12;100.00
65190;BME280;51777;53.570;9.984;2023-07-13T06:06:38;101073.56;;;17.06;100.00
65190;BME280;51777;53.570;9.984;2023-07-13T06:09:03;101078.81;;;17.20;100.00
65190;BME280;51777;53.570;9.984;2023-07-13T06:11:29;101080.59;;;17.35;100.00
65190;BME280;51777;53.570;9.984;2023-07-13T06:13:55;101083.09;;;17.57;100.00
65190;BME280;51777;53.570;9.984;2023-07-13T06:16:21;101085.09;;;17.70;100.00
65190;BME280;51777;53.570;9.984;2023-07-13T06:18:47;101086.81;;;17.48;100.00
65190;BME280;51777;53.570;9.984;2023-07-13T06:21:15;101077.63;;;17.38;100.00
65190;BME280;51777;53.570;9.984;2023-07-13T06:23:41;101085.66;;;17.51;100.00
65190;BME280;51777;53.570;9.984;2023-07-13T06:26:07;101087.34;;;17.58;100.00
65190;BME280;51777;53.570;9.984;2023-07-13T06:28:33;101091.53;;;17.38;100.00
65190;BME280;51777;53.570;9.984;2023-07-13T06:30:59;101082.59;;;17.32;100.00
65190;BME280;51777;53.570;9.984;2023-07-13T06:33:25;101083.50;;;17.40;100.00
65190;BME280;51777;53.570;9.984;2023-07-13T06:35:51;101088.69;;;17.69;100.00
65190;BME280;51777;53.570;9.984;2023-07-13T06:38:17;101086.91;;;17.70;100.00
65190;BME280;51777;53.570;9.984;2023-07-13T06:40:42;101103.75;;;17.82;100.00
65190;BME280;51777;53.570;9.984;2023-07-13T06:43:08;101096.28;;;17.64;100.00
65190;BME280;51777;53.570;9.984;2023-07-13T06:45:41;101094.66;;;17.63;100.00
65190;BME280;51777;53.570;9.984;2023-07-13T06:48:07;101100.78;;;17.70;100.00
65190;BME280;51777;53.570;9.984;2023-07-13T06:50:33;101095.75;;;17.69;100.00
65190;BME280;51777;53.570;9.984;2023-07-13T06:52:59;101097.34;;;17.70;100.00
65190;BME280;51777;53.570;9.984;2023-07-13T06:55:25;101101.50;;;17.79;100.00
65190;BME280;51777;53.570;9.984;2023-07-13T06:57:50;101102.69;;;17.61;100.00
65190;BME280;51777;53.570;9.984;2023-07-13T07:00:16;101100.47;;;17.95;100.00
65190;BME280;51777;53.570;9.984;2023-07-13T07:02:42;101099.41;;;18.10;100.00
65190;BME280;51777;53.570;9.984;2023-07-13T07:05:07;101104.91;;;18.15;100.00
65190;BME280;51777;53.570;9.984;2023-07-13T07:07:32;101103.44;;;18.28;100.00
65190;BME280;51777;53.570;9.984;2023-07-13T07:09:58;101099.72;;;18.22;100.00
65190;BME280;51777;53.570;9.984;2023-07-13T07:12:23;101102.09;;;18.17;100.00
65190;BME280;51777;53.570;9.984;2023-07-13T07:14:48;101107.47;;;18.30;100.00
65190;BME280;51777;53.570;9.984;2023-07-13T07:17:15;101112.53;;;18.53;100.00
65190;BME280;51777;53.570;9.984;2023-07-13T07:19:41;101114.75;;;18.77;100.00
65190;BME280;51777;53.570;9.984;2023-07-13T07:22:07;101109.66;;;18.48;100.00
65190;BME280;51777;53.570;9.984;2023-07-13T07:24:32;101108.31;;;18.59;100.00
65190;BME280;51777;53.570;9.984;2023-07-13T07:26:58;101106.56;;;18.87;100.00
65190;BME280;51777;53.570;9.984;2023-07-13T07:29:23;101110.09;;;19.01;100.00
65190;BME280;51777;53.570;9.984;2023-07-13T07:31:52;101114.56;;;19.07;100.00
65190;BME280;51777;53.570;9.984;2023-07-13T07:34:18;101122.09;;;18.89;100.00
65190;BME280;51777;53.570;9.984;2023-07-13T07:36:44;101120.25;;;18.61;100.00
65190;BME280;51777;53.570;9.984;2023-07-13T07:39:10;101110.03;;;18.94;100.00
65190;BME280;51777;53.570;9.984;2023-07-13T07:41:37;101115.88;;;19.24;100.00
65190;BME280;51777;53.570;9.984;2023-07-13T07:44:02;101111.63;;;19.58;100.00
65190;BME280;51777;53.570;9.984;2023-07-13T07:46:28;101116.75;;;19.73;100.00
65190;BME280;51777;53.570;9.984;2023-07-13T07:48:55;101118.78;;;19.77;100.00
65190;BME280;51777;53.570;9.984;2023-07-13T07:51:20;101120.00;;;19.81;100.00
65190;BME280;51777;53.570;9.984;2023-07-13T07:53:46;101128.47;;;19.77;100.00
65190;BME280;51777;53.570;9.984;2023-07-13T07:56:12;101119.31;;;19.59;100.00
65190;BME280;51777;53.570;9.984;2023-07-13T07:58:38;101115.00;;;19.86;100.00
65190;BME280;51777;53.570;9.984;2023-07-13T08:01:07;101122.25;;;19.84;100.00
65190;BME280;51777;53.570;9.984;2023-07-13T08:03:41;101112.59;;;19.98;100.00
65190;BME280;51777;53.570;9.984;2023-07-13T08:06:07;101108.13;;;19.92;100.00
65190;BME280;51777;53.570;9.984;2023-07-13T08:08:34;101113.84;;;20.15;100.00
65190;BME280;51777;53.570;9.984;2023-07-13T08:11:05;101111.91;;;20.50;100.00
65190;BME280;51777;53.570;9.984;2023-07-13T08:13:31;101117.53;;;21.00;100.00
65190;BME280;51777;53.570;9.984;2023-07-13T08:15:57;101118.81;;;21.62;100.00
65190;BME280;51777;53.570;9.984;2023-07-13T08:18:24;101125.47;;;22.03;100.00
65190;BME280;51777;53.570;9.984;2023-07-13T08:20:51;101124.38;;;22.24;100.00
65190;BME280;51777;53.570;9.984;2023-07-13T08:23:17;101126.13;;;21.98;100.00
65190;BME280;51777;53.570;9.984;2023-07-13T08:25:42;101122.69;;;21.53;100.00
65190;BME280;51777;53.570;9.984;2023-07-13T08:28:08;101120.59;;;21.68;100.00
65190;BME280;51777;53.570;9.984;2023-07-13T08:30:34;101137.75;;;23.40;100.00
65190;BME280;51777;53.570;9.984;2023-07-13T08:33:01;101136.56;;;23.00;100.00
65190;BME280;51777;53.570;9.984;2023-07-13T08:35:27;101132.91;;;22.19;100.00
65190;BME280;51777;53.570;9.984;2023-07-13T08:37:52;101135.63;;;21.61;100.00
65190;BME280;51777;53.570;9.984;2023-07-13T08:40:19;101136.34;;;20.97;100.00
65190;BME280;51777;53.570;9.984;2023-07-13T08:42:58;101143.78;;;21.40;100.00
65190;BME280;51777;53.570;9.984;2023-07-13T08:48:00;101144.19;;;23.99;100.00
65190;BME280;51777;53.570;9.984;2023-07-13T08:50:35;101147.25;;;23.05;100.00
65190;BME280;51777;53.570;9.984;2023-07-13T08:53:04;101152.06;;;24.71;100.00
65190;BME280;51777;53.570;9.984;2023-07-13T08:55:37;101146.53;;;24.49;100.00
65190;BME280;51777;53.570;9.984;2023-07-13T08:58:15;101161.28;;;25.79;100.00
65190;BME280;51777;53.570;9.984;2023-07-13T09:03:20;101174.28;;;28.68;100.00
65190;BME280;51777;53.570;9.984;2023-07-13T09:05:53;101162.19;;;27.52;100.00
65190;BME280;51777;53.570;9.984;2023-07-13T09:16:04;101157.81;;;26.19;100.00
65190;BME280;51777;53.570;9.984;2023-07-13T09:18:49;101156.78;;;27.04;100.00
65190;BME280;51777;53.570;9.984;2023-07-13T09:21:20;101171.91;;;28.77;100.00
65190;BME280;51777;53.570;9.984;2023-07-13T09:23:47;101157.38;;;26.10;100.00
65190;BME280;51777;53.570;9.984;2023-07-13T09:26:19;101163.72;;;25.81;100.00
65190;BME280;51777;53.570;9.984;2023-07-13T09:28:51;101158.22;;;25.18;100.00
65190;BME280;51777;53.570;9.984;2023-07-13T09:31:32;101165.94;;;28.00;100.00
65190;BME280;51777;53.570;9.984;2023-07-13T09:33:59;101175.44;;;28.82;100.00
65190;BME280;51777;53.570;9.984;2023-07-13T09:36:28;101168.38;;;26.64;100.00
65190;BME280;51777;53.570;9.984;2023-07-13T09:39:02;101157.50;;;25.11;100.00
65190;BME280;51777;53.570;9.984;2023-07-13T09:44:18;101171.03;;;27.36;100.00
65190;BME280;51777;53.570;9.984;2023-07-13T09:46:55;101171.75;;;28.88;100.00
65190;BME280;51777;53.570;9.984;2023-07-13T09:49:36;101175.03;;;29.48;100.00
65190;BME280;51777;53.570;9.984;2023-07-13T09:52:05;101170.78;;;26.49;100.00
65190;BME280;51777;53.570;9.984;2023-07-13T09:54:36;101174.56;;;25.67;100.00
65190;BME280;51777;53.570;9.984;2023-07-13T09:57:03;101176.97;;;25.81;100.00
65190;BME280;51777;53.570;9.984;2023-07-13T09:59:30;101166.56;;;24.80;100.00
65190;BME280;51777;53.570;9.984;2023-07-13T10:01:56;101161.69;;;23.64;100.00
65190;BME280;51777;53.570;9.984;2023-07-13T10:04:30;101161.28;;;23.42;100.00
65190;BME280;51777;53.570;9.984;2023-07-13T10:07:11;101161.47;;;23.04;100.00
65190;BME280;51777;53.570;9.984;2023-07-13T10:09:38;101157.44;;;22.76;100.00
65190;BME280;51777;53.570;9.984;2023-07-13T10:12:12;101165.06;;;24.61;100.00
65190;BME280;51777;53.570;9.984;2023-07-13T10:14:38;101175.13;;;25.81;100.00
65190;BME280;51777;53.570;9.984;2023-07-13T10:17:05;101163.91;;;26.19;100.00
65190;BME280;51777;53.570;9.984;2023-07-13T10:19:35;101176.84;;;27.55;100.00
65190;BME280;51777;53.570;9.984;2023-07-13T10:24:36;101177.94;;;28.94;100.00
65190;BME280;51777;53.570;9.984;2023-07-13T10:27:18;101169.13;;;28.02;100.00
65190;BME280;51777;53.570;9.984;2023-07-13T10:29:51;101166.06;;;26.68;100.00
65190;BME280;51777;53.570;9.984;2023-07-13T10:32:21;101158.56;;;26.48;100.00
65190;BME280;51777;53.570;9.984;2023-07-13T10:34:48;101157.25;;;27.83;100.00
65190;BME280;51777;53.570;9.984;2023-07-13T10:40:54;101164.91;;;27.58;100.00
65190;BME280;51777;53.570;9.984;2023-07-13T10:43:28;101156.38;;;26.78;100.00
65190;BME280;51777;53.570;9.984;2023-07-13T10:45:58;101173.75;;;28.39;100.00
65190;BME280;51777;53.570;9.984;2023-07-13T10:48:30;101164.13;;;28.28;100.00
65190;BME280;51777;53.570;9.984;2023-07-13T10:51:10;101163.69;;;28.78;100.00
65190;BME280;51777;53.570;9.984;2023-07-13T11:02:29;101163.84;;;26.02;100.00
65190;BME280;51777;53.570;9.984;2023-07-13T11:05:13;101166.53;;;26.48;100.00
65190;BME280;51777;53.570;9.984;2023-07-13T11:08:16;101170.38;;;26.90;100.00
65190;BME280;51777;53.570;9.984;2023-07-13T11:10:54;101165.41;;;27.55;100.00
65190;BME280;51777;53.570;9.984;2023-07-13T11:18:47;101158.44;;;27.70;100.00
65190;BME280;51777;53.570;9.984;2023-07-13T11:23:51;101159.50;;;28.23;100.00
65190;BME280;51777;53.570;9.984;2023-07-13T11:29:36;101149.88;;;27.03;100.00
65190;BME280;51777;53.570;9.984;2023-07-13T11:32:25;101171.28;;;27.57;100.00
65190;BME280;51777;53.570;9.984;2023-07-13T11:34:55;101170.91;;;27.92;100.00
65190;BME280;51777;53.570;9.984;2023-07-13T11:37:21;101171.88;;;28.66;100.00
65190;BME280;51777;53.570;9.984;2023-07-13T11:39:50;101164.28;;;27.94;100.00
65190;BME280;51777;53.570;9.984;2023-07-13T11:42:18;101169.00;;;28.41;100.00
65190;BME280;51777;53.570;9.984;2023-07-13T11:44:50;101169.19;;;28.07;100.00
65190;BME280;51777;53.570;9.984;2023-07-13T11:47:21;101168.88;;;27.33;100.00
65190;BME280;51777;53.570;9.984;2023-07-13T11:49:54;101171.00;;;26.30;100.00
65190;BME280;51777;53.570;9.984;2023-07-13T11:52:35;101160.78;;;25.42;100.00
65190;BME280;51777;53.570;9.984;2023-07-13T11:55:04;101164.97;;;25.03;100.00
65190;BME280;51777;53.570;9.984;2023-07-13T11:57:51;101168.78;;;25.07;100.00
65190;BME280;51777;53.570;9.984;2023-07-13T12:00:28;101165.34;;;25.06;100.00
65190;BME280;51777;53.570;9.984;2023-07-13T12:02:56;101167.56;;;24.68;100.00
65190;BME280;51777;53.570;9.984;2023-07-13T12:05:22;101159.44;;;24.69;100.00
65190;BME280;51777;53.570;9.984;2023-07-13T12:07:50;101172.13;;;25.02;100.00
65190;BME280;51777;53.570;9.984;2023-07-13T12:10:28;101172.34;;;25.24;100.00
65190;BME280;51777;53.570;9.984;2023-07-13T12:13:04;101170.72;;;24.88;100.00
65190;BME280;51777;53.570;9.984;2023-07-13T12:15:48;101189.47;;;24.33;100.00
65190;BME280;51777;53.570;9.984;2023-07-13T12:18:17;101239.84;;;23.47;100.00
65190;BME280;51777;53.570;9.984;2023-07-13T12:20:44;101227.06;;;21.86;100.00
65190;BME280;51777;53.570;9.984;2023-07-13T12:23:31;101224.06;;;20.50;100.00
65190;BME280;51777;53.570;9.984;2023-07-13T12:25:58;101236.22;;;20.10;100.00
65190;BME280;51777;53.570;9.984;2023-07-13T12:28:44;101239.78;;;19.95;100.00
65190;BME280;51777;53.570;9.984;2023-07-13T12:34:16;101236.47;;;19.80;100.00
65190;BME280;51777;53.570;9.984;2023-07-13T12:39:20;101247.38;;;20.25;100.00
65190;BME280;51777;53.570;9.984;2023-07-13T12:41:49;101253.44;;;20.87;100.00
65190;BME280;51777;53.570;9.984;2023-07-13T12:44:18;101259.69;;;20.86;100.00
65190;BME280;51777;53.570;9.984;2023-07-13T12:46:58;101266.59;;;21.33;100.00
65190;BME280;51777;53.570;9.984;2023-07-13T12:49:28;101273.66;;;21.65;100.00
65190;BME280;51777;53.570;9.984;2023-07-13T12:51:59;101280.84;;;22.23;100.00
65190;BME280;51777;53.570;9.984;2023-07-13T12:54:26;101290.94;;;22.33;100.00
65190;BME280;51777;53.570;9.984;2023-07-13T12:56:53;101288.31;;;22.19;100.00
65190;BME280;51777;53.570;9.984;2023-07-13T12:59:21;101291.84;;;21.80;100.00
65190;BME280;51777;53.570;9.984;2023-07-13T13:01:48;101296.31;;;21.80;100.00
65190;BME280;51777;53.570;9.984;2023-07-13T13:04:15;101300.81;;;21.73;100.00
65190;BME280;51777;53.570;9.984;2023-07-13T13:06:42;101299.59;;;21.55;100.00
65190;BME280;51777;53.570;9.984;2023-07-13T13:09:16;101307.63;;;21.07;100.00
65190;BME280;51777;53.570;9.984;2023-07-13T13:11:42;101300.31;;;20.22;100.00
65190;BME280;51777;53.570;9.984;2023-07-13T13:14:08;101284.25;;;20.45;100.00
65190;BME280;51777;53.570;9.984;2023-07-13T13:17:00;101293.03;;;20.24;100.00
65190;BME280;51777;53.570;9.984;2023-07-13T13:19:28;101294.97;;;20.43;100.00
65190;BME280;51777;53.570;9.984;2023-07-13T13:21:56;101292.66;;;20.95;100.00
65190;BME280;51777;53.570;9.984;2023-07-13T13:24:24;101294.31;;;21.75;100.00
65190;BME280;51777;53.570;9.984;2023-07-13T13:26:51;101288.75;;;22.23;100.00
65190;BME280;51777;53.570;9.984;2023-07-13T13:29:23;101296.22;;;22.19;100.00
65190;BME280;51777;53.570;9.984;2023-07-13T13:31:54;101290.06;;;21.67;100.00
65190;BME280;51777;53.570;9.984;2023-07-13T13:34:21;101294.28;;;21.88;100.00